createdAt,value
2023-04-19T00:00:04.780Z,4.30
2023-04-19T00:02:34.542Z,4.30
2023-04-19T00:05:02.971Z,4.30
2023-04-19T00:07:29.921Z,4.30
2023-04-19T00:09:56.927Z,4.20
2023-04-19T00:12:23.769Z,4.20
2023-04-19T00:14:50.638Z,4.20
2023-04-19T00:17:17.553Z,4.20
2023-04-19T00:19:44.566Z,4.10
2023-04-19T00:22:12.152Z,4.10
2023-04-19T00:24:39.036Z,4.00
2023-04-19T00:27:05.931Z,4.00
2023-04-19T00:29:32.880Z,4.00
2023-04-19T00:31:59.800Z,4.00
2023-04-19T00:34:26.876Z,3.90
2023-04-19T00:36:56.779Z,3.70
2023-04-19T00:39:23.690Z,3.70
2023-04-19T00:41:50.632Z,3.70
2023-04-19T00:44:19.116Z,3.70
2023-04-19T00:46:46.162Z,3.70
2023-04-19T00:49:13.433Z,3.60
2023-04-19T00:51:40.513Z,3.70
2023-04-19T00:54:08.258Z,3.70
2023-04-19T00:56:35.863Z,3.70
2023-04-19T00:59:02.985Z,3.80
2023-04-19T01:01:30.922Z,3.70
2023-04-19T01:03:58.352Z,3.80
2023-04-19T01:06:27.963Z,3.80
2023-04-19T01:08:54.884Z,3.70
2023-04-19T01:11:26.337Z,3.80
2023-04-19T01:13:53.182Z,3.80
2023-04-19T01:16:20.096Z,3.80
2023-04-19T01:18:47.178Z,3.80
2023-04-19T01:21:14.290Z,3.80
2023-04-19T01:23:41.244Z,3.80
2023-04-19T01:26:08.227Z,3.80
2023-04-19T01:28:35.401Z,3.80
2023-04-19T01:31:02.226Z,3.70
2023-04-19T01:33:29.111Z,3.70
2023-04-19T01:35:56.043Z,3.80
2023-04-19T01:38:22.889Z,3.80
2023-04-19T01:40:49.849Z,3.70
2023-04-19T01:43:17.821Z,3.70
2023-04-19T01:45:45.710Z,3.70
2023-04-19T01:48:12.481Z,3.60
2023-04-19T01:50:39.483Z,3.60
2023-04-19T01:53:06.361Z,3.60
2023-04-19T01:55:33.222Z,3.50
2023-04-19T01:58:00.333Z,3.50
2023-04-19T02:00:27.162Z,3.40
2023-04-19T02:02:54.209Z,3.40
2023-04-19T02:05:22.061Z,3.30
2023-04-19T02:07:49.155Z,3.30
2023-04-19T02:10:16.011Z,3.20
2023-04-19T02:12:43.128Z,3.20
2023-04-19T02:15:10.481Z,3.20
2023-04-19T02:17:37.451Z,3.10
2023-04-19T02:20:05.279Z,3.20
2023-04-19T02:22:32.144Z,3.20
2023-04-19T02:24:59.392Z,3.20
2023-04-19T02:27:29.709Z,3.20
2023-04-19T02:29:56.660Z,3.20
2023-04-19T02:32:24.683Z,3.20
2023-04-19T02:34:52.133Z,3.10
2023-04-19T02:37:19.063Z,3.10
2023-04-19T02:39:46.324Z,3.10
2023-04-19T02:42:13.344Z,3.10
2023-04-19T02:44:40.330Z,3.10
2023-04-19T02:47:08.156Z,3.10
2023-04-19T02:49:37.110Z,3.10
2023-04-19T02:52:04.699Z,3.00
2023-04-19T02:54:42.337Z,3.00
2023-04-19T02:57:09.218Z,3.00
2023-04-19T02:59:36.746Z,3.00
2023-04-19T03:02:05.042Z,3.00
2023-04-19T03:04:32.077Z,2.90
2023-04-19T03:06:59.038Z,2.90
2023-04-19T03:09:26.429Z,2.90
2023-04-19T03:11:53.353Z,2.90
2023-04-19T03:14:20.665Z,2.90
2023-04-19T03:16:47.688Z,2.90
2023-04-19T03:19:14.770Z,2.90
2023-04-19T03:21:48.340Z,2.90
2023-04-19T03:24:15.964Z,2.90
2023-04-19T03:26:49.179Z,2.90
2023-04-19T03:29:20.662Z,2.70
2023-04-19T03:31:52.415Z,2.70
2023-04-19T03:34:19.898Z,2.60
2023-04-19T03:36:48.977Z,2.50
2023-04-19T03:39:15.972Z,2.40
2023-04-19T03:41:46.249Z,2.30
2023-04-19T03:44:21.500Z,2.30
2023-04-19T03:46:49.039Z,2.20
2023-04-19T03:49:20.038Z,2.20
2023-04-19T03:51:51.998Z,2.10
2023-04-19T03:54:18.947Z,2.10
2023-04-19T03:56:45.815Z,2.10
2023-04-19T03:59:13.232Z,2.10
2023-04-19T04:01:42.585Z,2.20
2023-04-19T04:04:10.283Z,2.20
2023-04-19T04:06:37.924Z,2.10
2023-04-19T04:09:06.135Z,2.10
2023-04-19T04:11:33.022Z,2.10
2023-04-19T04:13:59.951Z,2.00
2023-04-19T04:16:29.455Z,2.00
2023-04-19T04:18:56.346Z,2.00
2023-04-19T04:21:27.155Z,2.00
2023-04-19T04:23:56.634Z,2.10
2023-04-19T04:26:43.110Z,2.00
2023-04-19T04:29:24.815Z,2.00
2023-04-19T04:31:57.039Z,1.90
2023-04-19T04:34:28.196Z,1.90
2023-04-19T04:37:04.200Z,1.90
2023-04-19T04:39:31.430Z,2.00
2023-04-19T04:41:59.614Z,2.00
2023-04-19T04:44:27.875Z,2.00
2023-04-19T04:46:55.348Z,2.00
2023-04-19T04:49:26.134Z,2.10
2023-04-19T04:51:53.127Z,2.20
2023-04-19T04:54:20.845Z,2.20
2023-04-19T04:56:48.350Z,2.30
2023-04-19T04:59:15.921Z,2.40
2023-04-19T05:01:45.402Z,2.50
2023-04-19T05:04:13.823Z,2.70
2023-04-19T05:06:41.336Z,3.00
2023-04-19T05:09:09.972Z,3.20
2023-04-19T05:11:37.078Z,3.50
2023-04-19T05:14:04.999Z,3.70
2023-04-19T05:16:33.477Z,4.00
2023-04-19T05:19:00.756Z,4.30
2023-04-19T05:21:30.991Z,4.60
2023-04-19T05:23:57.796Z,4.90
2023-04-19T05:26:24.868Z,5.20
2023-04-19T05:28:53.051Z,5.50
2023-04-19T05:31:35.114Z,5.70
2023-04-19T05:34:31.475Z,5.80
2023-04-19T05:37:00.002Z,5.90
2023-04-19T05:39:26.979Z,5.90
2023-04-19T05:41:53.998Z,5.80
2023-04-19T05:44:21.435Z,5.80
2023-04-19T05:46:48.346Z,5.90
2023-04-19T05:49:24.882Z,6.00
2023-04-19T05:52:05.658Z,6.00
2023-04-19T05:54:46.724Z,6.20
2023-04-19T05:57:13.784Z,6.30
2023-04-19T05:59:40.805Z,6.30
2023-04-19T06:02:08.160Z,6.30
2023-04-19T06:04:35.508Z,6.40
2023-04-19T06:07:04.573Z,6.50
2023-04-19T06:09:33.147Z,6.70
2023-04-19T06:12:00.077Z,6.80
2023-04-19T06:14:29.272Z,6.80
2023-04-19T06:16:57.083Z,6.80
2023-04-19T06:19:24.120Z,6.80
2023-04-19T06:21:50.992Z,6.90
2023-04-19T06:24:18.015Z,7.10
2023-04-19T06:26:45.044Z,7.20
2023-04-19T06:29:11.848Z,7.40
2023-04-19T06:31:38.819Z,7.60
2023-04-19T06:34:05.773Z,7.90
2023-04-19T06:36:32.896Z,8.20
2023-04-19T06:38:59.906Z,8.40
2023-04-19T06:41:26.823Z,8.50
2023-04-19T06:43:53.628Z,8.50
2023-04-19T06:46:20.962Z,8.60
2023-04-19T06:48:47.845Z,8.80
2023-04-19T06:51:14.720Z,8.90
2023-04-19T06:53:41.693Z,9.00
2023-04-19T06:56:10.028Z,9.20
2023-04-19T06:58:37.063Z,9.40
2023-04-19T07:01:04.995Z,9.70
2023-04-19T07:03:32.436Z,9.90
2023-04-19T07:05:59.525Z,10.10
2023-04-19T07:08:34.964Z,10.20
2023-04-19T07:11:02.167Z,10.50
2023-04-19T07:13:29.293Z,10.70
2023-04-19T07:15:56.206Z,10.80
2023-04-19T07:18:23.225Z,10.90
2023-04-19T07:20:50.268Z,11.10
2023-04-19T07:23:17.373Z,11.20
2023-04-19T07:25:44.287Z,11.20
2023-04-19T07:28:11.160Z,11.10
2023-04-19T07:30:38.004Z,11.20
2023-04-19T07:33:05.147Z,11.30
2023-04-19T07:35:32.006Z,11.40
2023-04-19T07:37:58.886Z,11.40
2023-04-19T07:40:26.283Z,11.50
2023-04-19T07:42:55.859Z,11.70
2023-04-19T07:45:23.065Z,11.80
2023-04-19T07:47:50.192Z,11.80
2023-04-19T07:50:17.661Z,11.90
2023-04-19T07:52:44.607Z,11.80
2023-04-19T07:55:11.659Z,11.90
2023-04-19T07:57:38.633Z,11.90
2023-04-19T08:00:06.186Z,11.90
2023-04-19T08:02:48.681Z,12.00
2023-04-19T08:05:20.106Z,12.00
2023-04-19T08:07:47.324Z,12.10
2023-04-19T08:10:15.059Z,12.20
2023-04-19T08:12:53.470Z,12.30
2023-04-19T08:16:13.357Z,12.50
2023-04-19T08:18:15.962Z,12.70
2023-04-19T08:20:43.080Z,12.80
2023-04-19T08:23:21.641Z,12.90
2023-04-19T08:25:49.720Z,12.90
2023-04-19T08:28:17.703Z,12.80
2023-04-19T08:30:44.725Z,12.80
2023-04-19T08:33:11.856Z,12.90
2023-04-19T08:35:41.013Z,13.10
2023-04-19T08:38:08.663Z,13.20
2023-04-19T08:40:36.729Z,13.20
2023-04-19T08:43:07.342Z,13.30
2023-04-19T08:45:35.582Z,13.40
2023-04-19T08:48:04.249Z,13.60
2023-04-19T08:50:38.712Z,13.60
2023-04-19T08:53:24.866Z,13.60
2023-04-19T08:56:08.519Z,13.80
2023-04-19T08:58:57.832Z,14.00
2023-04-19T09:01:34.681Z,14.20
2023-04-19T09:04:17.346Z,14.40
2023-04-19T09:06:53.840Z,14.70
2023-04-19T09:11:57.315Z,15.00
2023-04-19T09:14:26.614Z,15.10
2023-04-19T09:16:53.602Z,15.20
2023-04-19T09:19:24.822Z,15.30
2023-04-19T09:21:54.866Z,15.40
2023-04-19T09:25:15.399Z,15.50
2023-04-19T09:27:31.639Z,15.70
2023-04-19T09:30:03.663Z,15.80
2023-04-19T09:32:49.238Z,15.90
2023-04-19T09:35:16.661Z,15.70
2023-04-19T09:38:05.584Z,15.60
2023-04-19T09:40:34.256Z,15.60
2023-04-19T09:43:23.058Z,15.50
2023-04-19T09:45:50.380Z,15.30
2023-04-19T09:48:17.263Z,15.20
2023-04-19T09:51:02.563Z,15.30
2023-04-19T09:53:35.416Z,15.40
2023-04-19T09:56:04.031Z,15.40
2023-04-19T09:58:42.455Z,15.40
2023-04-19T10:01:19.433Z,15.20
2023-04-19T10:03:49.539Z,15.10
2023-04-19T10:08:50.629Z,15.20
2023-04-19T10:11:20.186Z,15.20
2023-04-19T10:13:48.912Z,15.10
2023-04-19T10:16:20.054Z,14.90
2023-04-19T10:18:52.411Z,15.00
2023-04-19T10:21:20.718Z,15.10
2023-04-19T10:23:47.854Z,15.20
2023-04-19T10:26:14.708Z,15.20
2023-04-19T10:28:42.222Z,15.30
2023-04-19T10:31:13.129Z,15.30
2023-04-19T10:33:41.422Z,15.40
2023-04-19T10:36:14.536Z,15.60
2023-04-19T10:38:47.240Z,15.80
2023-04-19T10:41:21.770Z,16.00
2023-04-19T10:43:58.250Z,16.20
2023-04-19T10:46:26.456Z,16.30
2023-04-19T10:49:03.306Z,16.40
2023-04-19T10:51:36.340Z,16.40
2023-04-19T10:54:07.515Z,16.20
2023-04-19T10:56:34.397Z,16.10
2023-04-19T10:59:01.398Z,15.90
2023-04-19T11:01:40.449Z,15.90
2023-04-19T11:04:08.993Z,15.90
2023-04-19T11:06:37.944Z,15.80
2023-04-19T11:09:10.139Z,15.70
2023-04-19T11:11:37.269Z,15.50
2023-04-19T11:14:04.527Z,15.60
2023-04-19T11:19:05.161Z,15.80
2023-04-19T11:21:33.205Z,15.80
2023-04-19T11:24:10.285Z,15.70
2023-04-19T11:26:37.373Z,15.60
2023-04-19T11:29:08.387Z,15.60
2023-04-19T11:31:36.283Z,15.60
2023-04-19T11:34:03.857Z,15.40
2023-04-19T11:36:32.168Z,15.30
2023-04-19T11:38:59.148Z,15.40
2023-04-19T11:41:26.171Z,15.40
2023-04-19T11:43:53.203Z,15.20
2023-04-19T11:46:20.079Z,15.30
2023-04-19T11:48:54.671Z,15.40
2023-04-19T11:51:21.857Z,15.50
2023-04-19T11:53:48.633Z,15.60
2023-04-19T11:56:16.951Z,15.70
2023-04-19T11:58:45.669Z,15.80
2023-04-19T12:01:20.689Z,16.00
2023-04-19T12:03:53.102Z,16.10
2023-04-19T12:06:25.540Z,16.30
2023-04-19T12:08:53.613Z,16.30
2023-04-19T12:11:24.436Z,16.40
2023-04-19T12:14:11.082Z,16.30
2023-04-19T12:16:38.865Z,16.40
2023-04-19T12:19:17.733Z,16.40
2023-04-19T12:21:46.189Z,16.20
2023-04-19T12:24:15.274Z,16.10
2023-04-19T12:26:56.851Z,16.10
2023-04-19T12:29:23.764Z,16.10
2023-04-19T12:31:51.155Z,16.10
2023-04-19T12:34:18.210Z,16.10
2023-04-19T12:36:45.042Z,16.10
2023-04-19T12:39:12.035Z,16.10
2023-04-19T12:41:38.862Z,16.00
2023-04-19T12:44:05.796Z,16.10
2023-04-19T12:46:32.962Z,16.20
2023-04-19T12:49:00.025Z,16.40
2023-04-19T12:51:27.987Z,16.20
2023-04-19T12:53:54.922Z,16.20
2023-04-19T12:56:24.727Z,16.30
2023-04-19T12:58:51.695Z,16.30
2023-04-19T13:01:18.715Z,16.40
2023-04-19T13:03:46.453Z,16.40
2023-04-19T13:06:15.469Z,16.50
2023-04-19T13:08:46.512Z,16.50
2023-04-19T13:11:15.911Z,16.60
2023-04-19T13:13:42.980Z,16.60
2023-04-19T13:16:09.945Z,16.60
2023-04-19T13:18:37.001Z,16.60
2023-04-19T13:21:05.048Z,16.60
2023-04-19T13:23:33.523Z,16.70
2023-04-19T13:26:00.432Z,16.80
2023-04-19T13:28:27.237Z,16.90
2023-04-19T13:30:54.242Z,17.00
2023-04-19T13:33:21.259Z,17.10
2023-04-19T13:35:48.420Z,17.30
2023-04-19T13:38:15.260Z,17.30
2023-04-19T13:40:42.122Z,17.00
2023-04-19T13:43:10.975Z,17.00
2023-04-19T13:45:37.840Z,17.00
2023-04-19T13:48:06.533Z,17.20
2023-04-19T13:50:33.455Z,17.10
2023-04-19T13:53:00.488Z,17.20
2023-04-19T13:55:27.471Z,17.20
2023-04-19T13:57:54.451Z,16.90
2023-04-19T14:00:21.635Z,16.70
2023-04-19T14:02:52.546Z,16.50
2023-04-19T14:05:19.784Z,16.60
2023-04-19T14:07:47.002Z,16.70
2023-04-19T14:10:13.915Z,16.70
2023-04-19T14:12:41.469Z,16.80
2023-04-19T14:15:08.740Z,16.70
2023-04-19T14:17:36.061Z,16.60
2023-04-19T14:20:06.850Z,16.40
2023-04-19T14:22:35.203Z,16.30
2023-04-19T14:25:02.895Z,16.30
2023-04-19T14:27:30.095Z,16.20
2023-04-19T14:29:57.055Z,16.30
2023-04-19T14:32:27.530Z,16.40
2023-04-19T14:34:56.170Z,16.50
2023-04-19T14:37:24.529Z,16.50
2023-04-19T14:39:51.806Z,16.40
2023-04-19T14:42:21.705Z,16.50
2023-04-19T14:44:51.534Z,16.60
2023-04-19T14:47:18.609Z,16.70
2023-04-19T14:49:45.489Z,16.80
2023-04-19T14:52:12.766Z,16.90
2023-04-19T14:54:39.706Z,16.90
2023-04-19T14:57:06.639Z,16.90
2023-04-19T14:59:33.652Z,16.90
2023-04-19T15:02:00.503Z,16.90
2023-04-19T15:04:27.522Z,16.80
2023-04-19T15:06:54.824Z,16.80
2023-04-19T15:09:21.909Z,16.80
2023-04-19T15:11:48.762Z,16.90
2023-04-19T15:14:15.803Z,17.00
2023-04-19T15:16:43.260Z,17.00
2023-04-19T15:19:10.129Z,17.10
2023-04-19T15:21:37.120Z,17.00
2023-04-19T15:24:05.197Z,16.80
2023-04-19T15:26:31.999Z,16.70
2023-04-19T15:28:59.093Z,16.70
2023-04-19T15:31:26.368Z,16.70
2023-04-19T15:33:53.820Z,16.70
2023-04-19T15:36:20.744Z,16.70
2023-04-19T15:38:47.613Z,16.80
2023-04-19T15:41:14.418Z,16.80
2023-04-19T15:43:41.441Z,16.80
2023-04-19T15:46:13.073Z,16.80
2023-04-19T15:48:40.304Z,16.90
2023-04-19T15:51:08.520Z,16.80
2023-04-19T15:53:38.197Z,16.70
2023-04-19T15:56:05.587Z,16.70
2023-04-19T15:58:32.642Z,16.70
2023-04-19T16:00:59.389Z,16.70
2023-04-19T16:03:26.493Z,16.70
2023-04-19T16:05:53.597Z,16.60
2023-04-19T16:08:20.455Z,16.50
2023-04-19T16:10:48.153Z,16.60
2023-04-19T16:13:16.182Z,16.60
2023-04-19T16:15:44.230Z,16.70
2023-04-19T16:18:11.379Z,16.70
2023-04-19T16:20:39.569Z,16.80
2023-04-19T16:23:06.371Z,16.70
2023-04-19T16:25:34.167Z,16.70
2023-04-19T16:28:01.302Z,16.70
2023-04-19T16:30:28.493Z,16.70
2023-04-19T16:32:56.374Z,16.70
2023-04-19T16:35:24.324Z,16.60
2023-04-19T16:37:51.507Z,16.70
2023-04-19T16:40:21.116Z,16.60
2023-04-19T16:42:48.290Z,16.60
2023-04-19T16:45:17.743Z,16.60
2023-04-19T16:47:46.165Z,16.60
2023-04-19T16:50:14.253Z,16.50
2023-04-19T16:52:41.437Z,16.50
2023-04-19T16:55:08.828Z,16.40
2023-04-19T16:57:36.752Z,16.50
2023-04-19T17:00:05.934Z,16.40
2023-04-19T17:02:35.843Z,16.40
2023-04-19T17:05:03.064Z,16.40
2023-04-19T17:07:30.029Z,16.40
2023-04-19T17:09:58.878Z,16.40
2023-04-19T17:12:26.001Z,16.40
2023-04-19T17:14:52.830Z,16.40
2023-04-19T17:17:20.159Z,16.30
2023-04-19T17:19:47.297Z,16.30
2023-04-19T17:22:15.565Z,16.20
2023-04-19T17:24:42.841Z,16.20
2023-04-19T17:27:09.923Z,16.20
2023-04-19T17:29:37.007Z,16.20
2023-04-19T17:32:04.251Z,16.10
2023-04-19T17:34:31.349Z,16.10
2023-04-19T17:36:59.638Z,16.00
2023-04-19T17:39:27.945Z,16.00
2023-04-19T17:41:56.194Z,16.00
2023-04-19T17:44:23.414Z,15.90
2023-04-19T17:46:50.365Z,15.90
2023-04-19T17:49:20.097Z,15.90
2023-04-19T17:51:47.509Z,15.90
2023-04-19T17:54:15.867Z,15.90
2023-04-19T17:56:43.049Z,15.70
2023-04-19T17:59:10.099Z,15.70
2023-04-19T18:01:37.923Z,15.70
2023-04-19T18:04:05.166Z,15.70
2023-04-19T18:06:32.518Z,15.60
2023-04-19T18:08:59.884Z,15.50
2023-04-19T18:11:28.486Z,15.40
2023-04-19T18:13:56.076Z,15.30
2023-04-19T18:16:23.169Z,15.20
2023-04-19T18:18:50.441Z,15.00
2023-04-19T18:21:18.691Z,14.90
2023-04-19T18:23:45.692Z,14.80
2023-04-19T18:26:12.812Z,14.70
2023-04-19T18:28:40.250Z,14.60
2023-04-19T18:31:08.356Z,14.50
2023-04-19T18:33:35.515Z,14.40
2023-04-19T18:36:02.502Z,14.30
2023-04-19T18:38:29.441Z,14.20
2023-04-19T18:40:56.444Z,14.20
2023-04-19T18:43:24.543Z,14.10
2023-04-19T18:45:54.902Z,14.10
2023-04-19T18:48:23.130Z,14.10
2023-04-19T18:50:49.976Z,13.90
2023-04-19T18:53:16.857Z,13.90
2023-04-19T18:55:43.778Z,13.90
2023-04-19T18:58:11.964Z,13.80
2023-04-19T19:00:38.662Z,13.70
2023-04-19T19:03:09.350Z,13.60
2023-04-19T19:05:51.515Z,13.50
2023-04-19T19:08:19.125Z,13.30
2023-04-19T19:13:16.087Z,13.00
2023-04-19T19:15:43.789Z,12.90
2023-04-19T19:18:10.838Z,12.70
2023-04-19T19:20:37.744Z,12.60
2023-04-19T19:23:04.723Z,12.50
2023-04-19T19:25:32.375Z,12.30
2023-04-19T19:28:07.501Z,12.20
2023-04-19T19:30:40.222Z,12.00
2023-04-19T19:33:07.307Z,11.90
2023-04-19T19:35:34.234Z,11.90
2023-04-19T19:38:01.203Z,11.70
2023-04-19T19:40:30.982Z,11.60
2023-04-19T19:43:00.272Z,11.50
2023-04-19T19:45:28.671Z,11.30
2023-04-19T19:47:55.922Z,11.30
2023-04-19T19:52:53.397Z,11.20
2023-04-19T19:55:20.554Z,11.00
2023-04-19T19:58:23.953Z,10.90
2023-04-19T20:00:45.047Z,10.70
2023-04-19T20:03:14.565Z,10.60
2023-04-19T20:05:42.048Z,10.60
2023-04-19T20:08:12.045Z,10.50
2023-04-19T20:10:41.658Z,10.40
2023-04-19T20:13:09.032Z,10.30
2023-04-19T20:15:37.026Z,10.20
2023-04-19T20:18:04.828Z,10.10
2023-04-19T20:20:32.124Z,10.00
2023-04-19T20:22:58.990Z,9.80
2023-04-19T20:25:26.044Z,9.60
2023-04-19T20:27:52.996Z,9.50
2023-04-19T20:30:19.860Z,9.40
2023-04-19T20:32:48.629Z,9.30
2023-04-19T20:35:15.858Z,9.20
2023-04-19T20:37:42.695Z,9.10
2023-04-19T20:40:12.699Z,9.00
2023-04-19T20:42:40.348Z,8.90
2023-04-19T20:45:10.036Z,8.80
2023-04-19T20:47:40.342Z,8.60
2023-04-19T20:50:08.653Z,8.50
2023-04-19T20:52:35.781Z,8.40
2023-04-19T20:55:02.780Z,8.40
2023-04-19T20:57:29.866Z,8.30
2023-04-19T20:59:56.773Z,8.30
2023-04-19T21:02:23.757Z,8.30
2023-04-19T21:04:50.955Z,8.20
2023-04-19T21:07:17.903Z,8.20
2023-04-19T21:09:44.826Z,8.20
2023-04-19T21:12:11.778Z,8.10
2023-04-19T21:14:38.625Z,8.00
2023-04-19T21:17:05.507Z,7.90
2023-04-19T21:19:32.371Z,7.70
2023-04-19T21:21:59.402Z,7.60
2023-04-19T21:24:26.565Z,7.50
2023-04-19T21:26:53.434Z,7.40
2023-04-19T21:29:20.936Z,7.30
2023-04-19T21:31:48.503Z,7.30
2023-04-19T21:34:15.686Z,7.20
2023-04-19T21:36:42.715Z,7.20
2023-04-19T21:39:10.408Z,7.20
2023-04-19T21:41:37.772Z,7.20
2023-04-19T21:44:04.964Z,7.10
2023-04-19T21:46:32.311Z,7.00
2023-04-19T21:48:59.314Z,7.00
2023-04-19T21:51:26.199Z,6.90
2023-04-19T21:53:53.105Z,6.90
2023-04-19T21:56:19.984Z,6.80
2023-04-19T21:58:47.349Z,6.70
2023-04-19T22:01:14.252Z,6.60
2023-04-19T22:03:41.371Z,6.60
2023-04-19T22:06:09.063Z,6.50
2023-04-19T22:08:36.360Z,6.50
2023-04-19T22:11:03.640Z,6.40
2023-04-19T22:13:33.379Z,6.40
2023-04-19T22:16:04.944Z,6.30
2023-04-19T22:18:34.228Z,6.30
2023-04-19T22:21:01.235Z,6.30
2023-04-19T22:23:28.224Z,6.20
2023-04-19T22:25:55.166Z,6.20
2023-04-19T22:28:22.030Z,6.20
2023-04-19T22:30:49.877Z,6.20
2023-04-19T22:33:16.738Z,6.20
2023-04-19T22:35:43.647Z,6.20
2023-04-19T22:38:11.270Z,6.10
2023-04-19T22:40:38.216Z,6.10
2023-04-19T22:43:07.902Z,6.10
2023-04-19T22:45:34.957Z,6.10
2023-04-19T22:48:03.196Z,6.00
2023-04-19T22:50:30.185Z,6.00
2023-04-19T22:52:56.930Z,6.00
2023-04-19T22:55:24.073Z,5.90
2023-04-19T22:57:51.047Z,5.90
2023-04-19T23:00:18.476Z,5.90
2023-04-19T23:02:45.613Z,5.90
2023-04-19T23:05:12.673Z,5.90
2023-04-19T23:07:41.968Z,5.90
2023-04-19T23:10:10.384Z,5.90
2023-04-19T23:15:06.538Z,5.80
2023-04-19T23:17:33.548Z,5.80
2023-04-19T23:20:00.614Z,5.80
2023-04-19T23:22:27.484Z,5.80
2023-04-19T23:24:54.522Z,5.80
2023-04-19T23:27:21.518Z,5.70
2023-04-19T23:29:48.368Z,5.70
2023-04-19T23:32:15.384Z,5.60
2023-04-19T23:34:42.357Z,5.50
2023-04-19T23:37:09.242Z,5.40
2023-04-19T23:39:36.106Z,5.40
2023-04-19T23:42:03.090Z,5.40
2023-04-19T23:44:30.323Z,5.30
2023-04-19T23:46:57.181Z,5.30
2023-04-19T23:49:24.156Z,5.30
2023-04-19T23:51:51.133Z,5.20
2023-04-19T23:54:25.986Z,5.20
2023-04-19T23:56:53.345Z,5.20
2023-04-19T23:59:20.696Z,5.10
